Time;durP1;ratioP1;P1;durP2;ratioP2;P2;SDS_P1;SDS_P2;PMS_P1;PMS_P2;Temp;Humidity;BMP_temperature;BMP_pressure;BME280_temperature;BME280_humidity;BME280_pressure;Samples;Min_cycle;Max_cycle;Signal;HPM_P1;HPM_P2
2020/12/07 00:00:29;;;;;;;46.97;27.55;;;4.90;99.90;;;;;;5071062;28;20033;-64
2020/12/07 00:02:55;;;;;;;47.65;25.80;;;5.00;99.90;;;;;;5072883;28;20024;-63
2020/12/07 00:05:20;;;;;;;50.15;25.60;;;5.00;99.90;;;;;;5060009;28;20483;-63
2020/12/07 00:07:46;;;;;;;49.50;24.73;;;5.00;99.90;;;;;;5074622;28;20541;-64
2020/12/07 00:10:11;;;;;;;49.97;26.33;;;5.00;99.90;;;;;;5073265;28;20070;-65
2020/12/07 00:12:37;;;;;;;50.22;25.73;;;5.00;99.90;;;;;;5050052;28;20036;-64
2020/12/07 00:15:04;;;;;;;44.85;25.17;;;4.90;99.90;;;;;;5065957;28;20124;-63
2020/12/07 00:17:30;;;;;;;47.85;25.70;;;4.90;99.90;;;;;;5068465;28;20478;-63
2020/12/07 00:19:55;;;;;;;45.30;24.27;;;4.80;99.90;;;;;;5068544;28;20086;-63
2020/12/07 00:22:29;;;;;;;47.92;25.20;;;4.80;99.90;;;;;;5069212;28;20553;-63
2020/12/07 00:24:56;;;;;;;42.25;23.08;;;4.70;99.90;;;;;;5072179;28;20029;-64
2020/12/07 00:27:24;;;;;;;42.17;22.10;;;4.70;99.90;;;;;;5059435;28;20036;-64
2020/12/07 00:29:51;;;;;;;37.83;21.58;;;4.70;99.90;;;;;;5073181;28;20025;-64
2020/12/07 00:32:17;;;;;;;43.95;22.95;;;4.80;99.90;;;;;;5073588;28;20043;-64
2020/12/07 00:34:43;;;;;;;41.05;20.73;;;4.80;99.90;;;;;;5065788;28;20021;-64
2020/12/07 00:37:09;;;;;;;39.25;21.00;;;4.80;99.90;;;;;;5064876;28;20039;-64
2020/12/07 00:39:36;;;;;;;36.75;20.55;;;4.90;99.90;;;;;;5068180;28;20028;-64
2020/12/07 00:42:02;;;;;;;39.80;20.75;;;4.90;99.90;;;;;;5065167;28;20043;-63
2020/12/07 00:44:29;;;;;;;43.75;21.15;;;4.80;99.90;;;;;;5056400;28;20498;-63
2020/12/07 00:46:54;;;;;;;39.28;19.17;;;4.80;99.90;;;;;;5071199;28;20105;-65
2020/12/07 00:49:20;;;;;;;37.50;19.55;;;4.80;99.90;;;;;;5071276;28;20075;-63
2020/12/07 00:51:48;;;;;;;36.95;19.52;;;4.80;99.90;;;;;;5062419;28;20109;-67
2020/12/07 00:54:14;;;;;;;36.33;20.23;;;4.80;99.90;;;;;;5071291;28;20498;-64
2020/12/07 00:56:40;;;;;;;39.60;20.98;;;4.80;99.90;;;;;;5069201;28;20103;-63
2020/12/07 00:59:05;;;;;;;36.58;19.17;;;4.80;99.90;;;;;;5070026;28;20510;-64
2020/12/07 01:01:31;;;;;;;39.20;21.88;;;4.80;99.90;;;;;;5066797;28;20098;-64
2020/12/07 01:03:56;;;;;;;38.80;20.10;;;4.80;99.90;;;;;;5064531;28;20032;-63
2020/12/07 01:06:36;;;;;;;37.53;21.05;;;4.80;99.90;;;;;;5071866;28;20032;-64
2020/12/07 01:09:02;;;;;;;43.85;23.42;;;4.80;99.90;;;;;;5070155;28;20119;-63
2020/12/07 01:11:27;;;;;;;45.17;23.00;;;4.70;99.90;;;;;;5071291;28;20115;-63
2020/12/07 01:13:53;;;;;;;42.50;22.60;;;4.60;99.90;;;;;;5048610;28;20046;-64
2020/12/07 01:16:22;;;;;;;43.38;22.17;;;4.70;99.90;;;;;;5064520;28;20028;-64
2020/12/07 01:18:49;;;;;;;44.55;23.25;;;4.60;99.90;;;;;;5053228;28;20048;-64
2020/12/07 01:21:16;;;;;;;44.13;22.73;;;4.60;99.90;;;;;;5071364;28;20414;-64
2020/12/07 01:23:44;;;;;;;42.20;21.73;;;4.70;99.90;;;;;;5070103;28;20043;-64
2020/12/07 01:26:11;;;;;;;45.42;23.55;;;4.70;99.90;;;;;;5070758;28;20482;-65
2020/12/07 01:28:37;;;;;;;43.67;22.75;;;4.60;99.90;;;;;;5073119;28;20023;-64
2020/12/07 01:31:02;;;;;;;47.25;23.30;;;4.60;99.90;;;;;;5082421;28;20032;-62
2020/12/07 01:33:28;;;;;;;41.20;22.20;;;4.60;99.90;;;;;;5069936;28;20102;-62
2020/12/07 01:35:54;;;;;;;47.53;24.45;;;4.60;99.90;;;;;;5059742;28;20032;-64
2020/12/07 01:38:19;;;;;;;44.40;21.63;;;4.60;99.90;;;;;;5071239;28;20028;-64
2020/12/07 01:40:45;;;;;;;46.15;22.67;;;4.80;99.90;;;;;;5068337;28;20514;-63
2020/12/07 01:43:10;;;;;;;38.20;20.77;;;4.70;99.90;;;;;;5071254;28;20410;-63
2020/12/07 01:45:36;;;;;;;38.97;20.15;;;4.80;99.90;;;;;;5061613;28;20029;-63
2020/12/07 01:48:02;;;;;;;43.97;20.55;;;4.70;99.90;;;;;;5059474;28;20382;-64
2020/12/07 01:50:28;;;;;;;37.65;20.33;;;4.80;99.90;;;;;;5066296;28;20129;-65
2020/12/07 01:52:53;;;;;;;38.20;20.10;;;4.80;99.90;;;;;;5055298;28;20040;-64
2020/12/07 01:55:19;;;;;;;37.00;19.73;;;4.80;99.90;;;;;;5069072;28;20043;-63
2020/12/07 01:57:44;;;;;;;36.53;19.42;;;4.80;99.90;;;;;;5067307;28;20052;-63
2020/12/07 02:00:10;;;;;;;40.05;20.38;;;4.80;99.90;;;;;;5068846;28;20032;-63
2020/12/07 02:02:35;;;;;;;41.50;19.25;;;4.80;99.90;;;;;;5048711;28;20383;-66
2020/12/07 02:05:01;;;;;;;34.33;17.65;;;4.80;99.90;;;;;;5067028;28;20024;-64
2020/12/07 02:07:27;;;;;;;39.95;19.73;;;4.80;99.90;;;;;;5057691;28;20503;-63
2020/12/07 02:09:52;;;;;;;40.60;20.10;;;4.80;99.90;;;;;;5066264;28;20096;-63
2020/12/07 02:12:18;;;;;;;42.72;20.45;;;4.80;99.90;;;;;;5062068;28;20028;-63
2020/12/07 02:14:43;;;;;;;35.60;19.58;;;4.80;99.90;;;;;;5063327;28;20025;-63
2020/12/07 02:17:09;;;;;;;39.25;20.23;;;4.80;99.90;;;;;;5055823;28;20098;-63
2020/12/07 02:19:35;;;;;;;42.05;20.85;;;4.90;99.90;;;;;;5037020;28;20028;-64
2020/12/07 02:22:00;;;;;;;39.85;20.13;;;4.90;99.90;;;;;;5067308;28;20544;-64
2020/12/07 02:24:26;;;;;;;45.28;22.25;;;4.90;99.90;;;;;;5057606;28;20518;-64
2020/12/07 02:26:51;;;;;;;41.55;21.00;;;4.90;99.90;;;;;;5051962;28;20077;-64
2020/12/07 02:29:17;;;;;;;46.08;21.75;;;4.90;99.90;;;;;;5068634;28;20074;-64
2020/12/07 02:31:42;;;;;;;43.17;21.88;;;4.90;99.90;;;;;;5068819;28;20028;-63
2020/12/07 02:34:08;;;;;;;42.88;21.75;;;4.80;99.90;;;;;;5062603;28;20037;-64
2020/12/07 02:36:33;;;;;;;48.72;22.10;;;4.80;99.90;;;;;;5068598;28;20028;-63
2020/12/07 02:38:59;;;;;;;47.30;22.33;;;4.80;99.90;;;;;;5060504;28;20097;-63
2020/12/07 02:41:24;;;;;;;45.38;22.30;;;4.80;99.90;;;;;;5063951;28;20031;-64
2020/12/07 02:43:50;;;;;;;44.50;22.13;;;4.80;99.90;;;;;;5069471;28;20032;-65
2020/12/07 02:46:15;;;;;;;49.85;23.90;;;4.90;99.90;;;;;;5067410;28;20053;-65
2020/12/07 02:48:41;;;;;;;51.88;24.27;;;4.80;99.90;;;;;;5056014;28;20211;-66
2020/12/07 02:51:07;;;;;;;52.42;26.02;;;4.90;99.90;;;;;;5060793;28;20064;-65
2020/12/07 02:53:33;;;;;;;46.70;24.50;;;4.90;99.90;;;;;;5056795;28;20075;-64
2020/12/07 02:55:59;;;;;;;54.00;25.50;;;4.90;99.90;;;;;;5068691;28;20029;-64
2020/12/07 02:58:24;;;;;;;45.80;22.35;;;4.90;99.90;;;;;;5062391;28;20105;-65
2020/12/07 03:00:50;;;;;;;51.92;25.38;;;4.90;99.90;;;;;;5055002;28;20028;-65
2020/12/07 03:03:15;;;;;;;42.67;22.63;;;4.90;99.90;;;;;;5051657;28;20025;-63
2020/12/07 03:05:41;;;;;;;48.83;24.65;;;4.90;99.90;;;;;;5066699;28;20032;-64
2020/12/07 03:08:06;;;;;;;56.05;25.67;;;5.00;99.90;;;;;;5058294;28;20059;-64
2020/12/07 03:10:32;;;;;;;50.72;26.10;;;4.90;99.90;;;;;;5068391;28;20032;-65
2020/12/07 03:12:57;;;;;;;50.55;24.75;;;5.00;99.90;;;;;;5059743;28;20029;-66
2020/12/07 03:15:23;;;;;;;51.67;26.05;;;4.90;99.90;;;;;;5050882;28;20021;-65
2020/12/07 03:17:48;;;;;;;43.22;22.55;;;4.90;99.90;;;;;;5054147;28;20025;-65
2020/12/07 03:20:14;;;;;;;50.55;25.88;;;4.90;99.90;;;;;;5065702;28;20481;-66
2020/12/07 03:22:39;;;;;;;52.03;26.90;;;4.90;99.90;;;;;;5057599;28;20100;-65
2020/12/07 03:25:05;;;;;;;47.53;26.65;;;4.90;99.90;;;;;;5063541;28;20440;-64
2020/12/07 03:27:31;;;;;;;53.72;27.65;;;4.90;99.90;;;;;;5066358;28;20250;-65
2020/12/07 03:29:56;;;;;;;57.13;27.13;;;4.80;99.90;;;;;;5062112;28;20039;-66
2020/12/07 03:32:22;;;;;;;58.40;28.88;;;4.80;99.90;;;;;;5067056;28;20021;-65
2020/12/07 03:34:47;;;;;;;55.53;26.45;;;4.80;99.90;;;;;;5069648;28;20545;-65
2020/12/07 03:37:13;;;;;;;62.30;29.63;;;4.80;99.90;;;;;;5067235;28;20033;-65
2020/12/07 03:39:39;;;;;;;49.38;26.75;;;4.90;99.90;;;;;;5064143;28;20028;-64
2020/12/07 03:42:04;;;;;;;56.20;28.50;;;4.90;99.90;;;;;;5067142;28;20043;-65
2020/12/07 03:44:30;;;;;;;69.28;31.88;;;4.90;99.90;;;;;;5060133;28;20207;-65
2020/12/07 03:46:55;;;;;;;62.38;30.80;;;4.90;99.90;;;;;;5046443;28;20032;-65
2020/12/07 03:49:21;;;;;;;65.78;31.85;;;4.90;99.90;;;;;;5063403;28;20031;-64
2020/12/07 03:51:47;;;;;;;60.97;31.95;;;4.90;99.90;;;;;;5065555;28;20114;-65
2020/12/07 03:54:12;;;;;;;68.55;33.92;;;4.90;99.90;;;;;;5063086;28;20434;-65
2020/12/07 03:56:38;;;;;;;72.47;35.53;;;4.90;99.90;;;;;;5061779;28;20096;-65
2020/12/07 03:59:03;;;;;;;60.72;32.55;;;4.90;99.90;;;;;;5073216;28;20103;-64
2020/12/07 04:01:29;;;;;;;72.32;33.10;;;4.90;99.90;;;;;;5068341;28;20029;-64
2020/12/07 04:04:02;;;;;;;58.13;29.67;;;4.90;99.90;;;;;;5070433;28;20016;-65
2020/12/07 04:06:31;;;;;;;74.18;33.78;;;5.00;99.90;;;;;;5070513;28;20332;-65
2020/12/07 04:08:57;;;;;;;62.95;30.58;;;5.00;99.90;;;;;;5071884;28;20534;-64
2020/12/07 04:11:22;;;;;;;54.97;28.67;;;5.00;99.90;;;;;;5070605;28;20036;-65
2020/12/07 04:13:48;;;;;;;70.03;32.78;;;5.10;99.90;;;;;;5063004;28;20067;-64
2020/12/07 04:16:13;;;;;;;56.90;28.17;;;5.00;99.90;;;;;;5072148;28;20066;-65
2020/12/07 04:18:39;;;;;;;53.00;28.15;;;5.10;99.90;;;;;;5069817;28;20048;-65
2020/12/07 04:21:05;;;;;;;64.30;29.77;;;5.10;99.90;;;;;;5072483;28;20052;-65
2020/12/07 04:23:31;;;;;;;64.65;28.60;;;5.00;99.90;;;;;;5061980;28;20416;-63
2020/12/07 04:25:57;;;;;;;50.25;26.08;;;5.00;99.90;;;;;;5072506;28;20111;-65
2020/12/07 04:28:23;;;;;;;48.53;24.98;;;5.00;99.90;;;;;;5071411;28;20138;-64
2020/12/07 04:30:48;;;;;;;45.88;24.15;;;5.00;99.90;;;;;;5069962;28;20479;-65
2020/12/07 04:33:14;;;;;;;52.20;25.13;;;5.00;99.90;;;;;;5068197;28;20029;-65
2020/12/07 04:35:40;;;;;;;47.72;23.38;;;5.00;99.90;;;;;;5071382;28;20427;-64
2020/12/07 04:38:05;;;;;;;48.20;22.40;;;5.00;99.90;;;;;;5071734;28;20107;-64
2020/12/07 04:40:31;;;;;;;52.95;25.00;;;5.10;99.90;;;;;;5064432;28;20061;-65
2020/12/07 04:42:57;;;;;;;52.28;25.15;;;5.00;99.90;;;;;;5066443;28;20345;-66
2020/12/07 04:45:23;;;;;;;50.90;24.17;;;5.00;99.90;;;;;;5069521;28;20387;-64
2020/12/07 04:47:52;;;;;;;56.05;25.20;;;5.00;99.90;;;;;;5069240;28;20025;-65
2020/12/07 04:50:23;;;;;;;61.42;28.10;;;5.00;99.90;;;;;;5070483;28;20051;-65
2020/12/07 04:52:52;;;;;;;50.30;24.63;;;5.00;99.90;;;;;;5062519;28;20020;-65
2020/12/07 04:55:17;;;;;;;53.35;23.42;;;5.10;99.90;;;;;;5052922;28;20044;-65
2020/12/07 04:57:44;;;;;;;61.05;27.15;;;5.10;99.90;;;;;;5070971;28;20032;-66
2020/12/07 05:00:10;;;;;;;51.00;25.33;;;5.10;99.90;;;;;;5072686;28;20036;-66
2020/12/07 05:02:36;;;;;;;57.97;27.13;;;5.20;99.90;;;;;;5069804;28;20082;-65
2020/12/07 05:05:04;;;;;;;42.08;23.33;;;5.20;99.90;;;;;;5070427;28;20095;-64
2020/12/07 05:07:33;;;;;;;42.95;21.65;;;5.10;99.90;;;;;;5078550;22;20025;-61
2020/12/07 05:09:59;;;;;;;58.15;26.48;;;5.20;99.90;;;;;;5045349;28;20060;-59
2020/12/07 05:12:35;;;;;;;40.42;21.27;;;5.30;99.90;;;;;;5065605;28;20044;-59
2020/12/07 05:15:00;;;;;;;55.92;25.58;;;5.30;99.90;;;;;;5051581;28;20029;-60
2020/12/07 05:17:26;;;;;;;51.30;24.85;;;5.30;99.90;;;;;;5065378;28;20032;-59
2020/12/07 05:19:51;;;;;;;63.75;25.60;;;5.20;99.90;;;;;;5060527;28;20056;-59
2020/12/07 05:22:17;;;;;;;59.22;25.40;;;5.20;99.90;;;;;;5064598;28;20237;-59
2020/12/07 05:24:47;;;;;;;62.30;27.00;;;5.20;99.90;;;;;;5066749;28;20013;-59
2020/12/07 05:27:16;;;;;;;56.42;26.02;;;5.10;99.90;;;;;;5063402;28;20029;-59
2020/12/07 05:29:51;;;;;;;62.95;26.27;;;5.10;99.90;;;;;;5063655;28;20386;-60
2020/12/07 05:32:17;;;;;;;62.08;27.83;;;5.20;99.90;;;;;;5068027;28;20034;-60
2020/12/07 05:34:42;;;;;;;70.43;27.38;;;5.20;99.90;;;;;;5066553;28;20016;-59
2020/12/07 05:37:08;;;;;;;56.55;23.77;;;5.10;99.90;;;;;;5064117;28;20036;-59
2020/12/07 05:39:33;;;;;;;65.88;27.23;;;5.10;99.90;;;;;;5068535;28;20033;-60
2020/12/07 05:42:01;;;;;;;63.22;28.88;;;5.10;99.90;;;;;;5068856;28;20032;-61
2020/12/07 05:44:28;;;;;;;77.57;29.80;;;5.10;99.90;;;;;;5054290;28;20084;-60
2020/12/07 05:46:56;;;;;;;78.72;30.38;;;5.10;99.90;;;;;;5052038;28;20555;-59
2020/12/07 05:49:23;;;;;;;59.80;26.80;;;5.10;99.90;;;;;;5052392;28;20509;-59
2020/12/07 05:52:00;;;;;;;62.55;26.58;;;5.10;99.90;;;;;;5064024;28;20033;-58
2020/12/07 05:54:26;;;;;;;59.70;28.13;;;5.20;99.90;;;;;;5069818;28;20048;-60
2020/12/07 05:56:57;;;;;;;74.60;30.65;;;5.20;99.90;;;;;;5072033;28;20047;-58
2020/12/07 05:59:29;;;;;;;68.22;28.25;;;5.20;99.90;;;;;;5067789;28;20394;-60
2020/12/07 06:01:58;;;;;;;79.20;30.70;;;5.20;99.90;;;;;;5063774;28;20046;-60
2020/12/07 06:04:27;;;;;;;80.03;30.27;;;5.20;99.90;;;;;;5050039;28;20032;-58
2020/12/07 06:06:59;;;;;;;77.88;28.73;;;5.10;99.90;;;;;;5067248;28;20024;-59
2020/12/07 06:09:27;;;;;;;71.30;28.67;;;5.20;99.90;;;;;;5054376;28;20037;-59
2020/12/07 06:12:08;;;;;;;74.00;30.08;;;5.10;99.90;;;;;;5060585;28;20021;-60
2020/12/07 06:14:37;;;;;;;67.03;28.55;;;5.20;99.90;;;;;;5057069;28;20025;-62
2020/12/07 06:17:03;;;;;;;81.43;32.45;;;5.20;99.90;;;;;;5067947;28;20115;-60
2020/12/07 06:19:31;;;;;;;80.07;32.25;;;5.20;99.90;;;;;;5081824;28;20442;-60
2020/12/07 06:22:00;;;;;;;74.32;30.00;;;5.20;99.90;;;;;;5064188;28;20109;-61
2020/12/07 06:24:42;;;;;;;75.05;30.45;;;5.20;99.90;;;;;;5064180;28;20049;-60
2020/12/07 06:27:13;;;;;;;78.32;29.88;;;5.30;99.90;;;;;;5062675;28;20048;-60
2020/12/07 06:29:54;;;;;;;71.65;29.23;;;5.20;99.90;;;;;;5072792;28;20035;-60
2020/12/07 06:32:20;;;;;;;64.07;28.35;;;5.30;99.90;;;;;;5076864;28;20060;-62
2020/12/07 06:34:50;;;;;;;71.95;30.55;;;5.30;99.90;;;;;;5056776;28;20495;-60
2020/12/07 06:37:16;;;;;;;73.70;28.65;;;5.30;99.90;;;;;;5066602;28;20478;-59
2020/12/07 06:39:43;;;;;;;80.57;31.23;;;5.30;99.90;;;;;;5066386;28;20070;-61
2020/12/07 06:42:09;;;;;;;62.03;26.40;;;5.30;99.90;;;;;;5064599;28;20498;-59
2020/12/07 06:44:35;;;;;;;59.65;26.30;;;5.30;99.90;;;;;;5068769;28;20029;-60
2020/12/07 06:47:04;;;;;;;71.72;29.30;;;5.30;99.90;;;;;;5069173;28;20111;-58
2020/12/07 06:49:38;;;;;;;57.50;26.48;;;5.30;99.90;;;;;;5068588;28;20035;-61
2020/12/07 06:52:10;;;;;;;57.42;26.38;;;5.30;99.90;;;;;;5052507;28;20441;-60
2020/12/07 06:57:30;;;;;;;58.55;26.90;;;5.20;99.90;;;;;;5060486;28;20051;-59
2020/12/07 07:00:19;;;;;;;47.83;22.42;;;5.20;99.90;;;;;;5061273;28;20017;-60
2020/12/07 07:02:48;;;;;;;61.38;27.35;;;5.20;99.90;;;;;;5062157;28;20021;-60
2020/12/07 07:05:19;;;;;;;46.60;22.75;;;5.20;99.90;;;;;;5059114;28;20020;-60
2020/12/07 07:07:45;;;;;;;52.50;25.02;;;5.20;99.90;;;;;;5067652;28;20059;-60
2020/12/07 07:10:13;;;;;;;63.65;27.23;;;5.20;99.90;;;;;;5065540;28;20025;-59
2020/12/07 07:12:42;;;;;;;48.67;24.88;;;5.20;99.90;;;;;;5056982;28;20025;-59
2020/12/07 07:15:09;;;;;;;44.00;22.95;;;5.20;99.90;;;;;;5061459;28;20028;-59
2020/12/07 07:17:37;;;;;;;51.22;27.50;;;5.20;99.90;;;;;;5058970;28;20033;-59
2020/12/07 07:20:11;;;;;;;55.55;26.85;;;5.20;99.90;;;;;;5054656;28;20025;-62
2020/12/07 07:22:41;;;;;;;47.05;24.52;;;5.20;99.90;;;;;;5067512;28;20063;-60
2020/12/07 07:30:21;;;;;;;70.93;34.50;;;5.10;99.90;;;;;;5071832;28;20541;-62
2020/12/07 07:32:49;;;;;;;66.18;33.22;;;5.10;99.90;;;;;;5065517;28;20043;-61
2020/12/07 07:35:17;;;;;;;69.93;34.95;;;5.00;99.90;;;;;;5059832;28;20016;-60
2020/12/07 07:37:43;;;;;;;67.63;36.03;;;5.00;99.90;;;;;;5046545;28;20024;-59
2020/12/07 07:40:11;;;;;;;72.28;36.95;;;5.00;99.90;;;;;;5056678;28;20055;-60
2020/12/07 07:42:51;;;;;;;75.18;38.50;;;5.00;99.90;;;;;;5075150;28;20020;-58
2020/12/07 07:45:19;;;;;;;84.00;38.10;;;4.90;99.90;;;;;;5065296;28;20478;-60
2020/12/07 07:47:57;;;;;;;82.07;39.92;;;5.00;99.90;;;;;;5072546;28;20074;-60
2020/12/07 08:11:25;;;;;;;58.78;30.80;;;5.00;99.90;;;;;;5063914;28;20070;-58
2020/12/07 08:16:14;;;;;;;55.55;29.40;;;5.00;99.90;;;;;;5055076;28;20405;-59
2020/12/07 08:18:41;;;;;;;60.28;30.73;;;5.00;99.90;;;;;;5073133;28;20494;-59
2020/12/07 08:21:07;;;;;;;73.22;32.20;;;5.00;99.90;;;;;;5067481;28;20482;-62
2020/12/07 08:23:33;;;;;;;67.38;32.97;;;5.00;99.90;;;;;;5069338;28;20028;-60
2020/12/07 08:26:03;;;;;;;70.35;32.67;;;5.00;99.90;;;;;;5071228;28;20031;-60
2020/12/07 08:28:41;;;;;;;73.38;33.03;;;5.00;99.90;;;;;;5060735;28;20394;-59
2020/12/07 08:31:17;;;;;;;75.93;34.85;;;5.00;99.90;;;;;;5069099;28;20124;-60
2020/12/07 08:34:19;;;;;;;71.32;34.05;;;5.00;99.90;;;;;;5063950;28;20740;-60
2020/12/07 08:36:45;;;;;;;60.60;30.85;;;5.00;99.90;;;;;;5067616;28;20090;-59
2020/12/07 08:39:11;;;;;;;76.93;36.45;;;5.00;99.90;;;;;;5071381;28;20020;-59
2020/12/07 08:41:37;;;;;;;64.57;33.15;;;4.90;99.90;;;;;;5065486;28;20033;-60
2020/12/07 08:44:06;;;;;;;75.38;35.97;;;4.90;99.90;;;;;;5067710;28;20035;-61
2020/12/07 08:46:33;;;;;;;79.15;37.67;;;4.80;99.90;;;;;;5069956;28;20026;-58
2020/12/07 08:49:00;;;;;;;79.43;37.60;;;4.80;99.90;;;;;;5057458;28;20036;-60
2020/12/07 08:51:27;;;;;;;89.90;41.58;;;4.70;99.90;;;;;;5066846;28;20039;-59
2020/12/07 08:53:54;;;;;;;81.43;41.30;;;4.70;99.90;;;;;;5059568;28;20138;-59
2020/12/07 08:56:20;;;;;;;97.28;40.78;;;4.80;99.90;;;;;;5062036;28;20033;-61
2020/12/07 08:58:45;;;;;;;68.72;35.58;;;4.80;99.90;;;;;;5060711;28;20028;-61
2020/12/07 09:01:12;;;;;;;102.78;43.95;;;4.80;99.90;;;;;;5067261;28;20120;-61
2020/12/07 09:03:40;;;;;;;113.65;45.33;;;4.70;99.90;;;;;;5063761;28;20017;-61
2020/12/07 09:06:06;;;;;;;101.10;44.85;;;4.70;99.90;;;;;;5070844;28;20020;-61
2020/12/07 09:08:33;;;;;;;126.07;48.70;;;4.60;99.90;;;;;;5071906;28;20082;-61
2020/12/07 09:11:02;;;;;;;89.70;42.60;;;4.50;99.90;;;;;;5070226;28;20063;-60
2020/12/07 09:13:27;;;;;;;120.68;49.03;;;4.50;99.90;;;;;;5066877;28;20025;-60
2020/12/07 09:15:53;;;;;;;104.70;45.15;;;4.50;99.90;;;;;;5069688;28;20478;-60
2020/12/07 09:18:19;;;;;;;72.93;38.50;;;4.50;99.90;;;;;;5062906;28;20060;-60
2020/12/07 09:20:45;;;;;;;125.28;49.42;;;4.60;99.90;;;;;;5064182;28;20421;-61
2020/12/07 09:23:11;;;;;;;100.75;45.97;;;4.60;99.90;;;;;;5066575;28;20498;-63
2020/12/07 09:25:36;;;;;;;118.07;48.05;;;4.60;99.90;;;;;;5069455;28;20021;-61
2020/12/07 09:28:02;;;;;;;105.32;45.83;;;4.70;99.90;;;;;;5075190;28;20020;-60
2020/12/07 09:30:28;;;;;;;109.95;47.08;;;4.70;99.90;;;;;;5055060;28;20483;-60
2020/12/07 09:32:53;;;;;;;111.93;47.55;;;4.60;99.90;;;;;;5052111;28;20032;-60
2020/12/07 09:35:19;;;;;;;116.28;48.03;;;4.60;99.90;;;;;;5064480;28;20078;-60
2020/12/07 09:37:45;;;;;;;124.95;50.40;;;4.70;99.90;;;;;;5036694;28;20035;-58
2020/12/07 09:40:11;;;;;;;112.85;47.75;;;4.70;99.90;;;;;;5071869;28;20544;-59
2020/12/07 09:42:39;;;;;;;104.55;45.58;;;4.70;99.90;;;;;;5055973;28;20044;-61
2020/12/07 09:45:08;;;;;;;133.68;51.38;;;4.70;99.90;;;;;;5071405;28;20581;-60
2020/12/07 09:47:34;;;;;;;131.30;50.25;;;4.70;99.90;;;;;;5069324;28;20028;-61
2020/12/07 09:50:02;;;;;;;120.78;50.03;;;4.70;99.90;;;;;;5052796;28;20020;-61
2020/12/07 09:52:27;;;;;;;130.43;51.20;;;4.70;99.90;;;;;;5070389;28;20030;-61
2020/12/07 09:54:53;;;;;;;112.70;47.88;;;4.70;99.90;;;;;;5065404;28;20108;-61
2020/12/07 09:57:19;;;;;;;104.47;46.13;;;4.70;99.90;;;;;;5066573;28;20483;-60
2020/12/07 09:59:47;;;;;;;108.35;45.70;;;4.70;99.90;;;;;;5065292;28;20032;-62
2020/12/07 10:02:13;;;;;;;120.40;48.75;;;4.70;99.90;;;;;;5057864;28;20033;-60
2020/12/07 10:04:38;;;;;;;108.65;46.35;;;4.60;99.90;;;;;;5068107;28;20020;-61
2020/12/07 10:07:04;;;;;;;119.95;48.35;;;4.60;99.90;;;;;;5070823;28;20025;-61
2020/12/07 10:09:29;;;;;;;115.43;48.50;;;4.60;99.90;;;;;;5068626;28;20086;-61
2020/12/07 10:11:55;;;;;;;150.23;53.80;;;4.60;99.90;;;;;;5069707;28;20044;-61
2020/12/07 10:14:21;;;;;;;148.07;56.78;;;4.60;99.90;;;;;;5056631;28;20032;-59
2020/12/07 10:16:46;;;;;;;121.65;48.33;;;4.60;99.90;;;;;;5063602;28;20036;-59
2020/12/07 10:19:12;;;;;;;116.25;50.70;;;4.70;99.90;;;;;;5051857;28;20029;-60
2020/12/07 10:21:38;;;;;;;151.35;55.45;;;4.60;99.90;;;;;;5052615;28;20021;-62
2020/12/07 10:24:04;;;;;;;143.35;53.90;;;4.60;99.90;;;;;;5065676;28;20434;-61
2020/12/07 10:26:30;;;;;;;153.35;58.22;;;4.60;99.90;;;;;;5071341;28;20108;-61
2020/12/07 10:28:56;;;;;;;132.48;53.88;;;4.60;99.90;;;;;;5069085;28;20021;-59
2020/12/07 10:31:25;;;;;;;139.98;54.97;;;4.50;99.90;;;;;;5067191;28;20029;-60
2020/12/07 10:33:51;;;;;;;128.75;52.83;;;4.50;99.90;;;;;;5059288;28;20539;-60
2020/12/07 10:36:18;;;;;;;135.48;53.85;;;4.50;99.90;;;;;;5064444;28;20475;-61
2020/12/07 10:38:44;;;;;;;151.13;55.60;;;4.50;99.90;;;;;;5058140;28;20020;-61
2020/12/07 10:41:10;;;;;;;129.90;53.38;;;4.50;99.90;;;;;;5060669;28;20025;-61
2020/12/07 10:43:37;;;;;;;171.32;58.35;;;4.50;99.90;;;;;;5062721;28;20190;-61
2020/12/07 10:46:03;;;;;;;160.07;55.50;;;4.60;99.90;;;;;;5057495;28;20084;-60
2020/12/07 10:48:28;;;;;;;147.43;59.47;;;4.50;99.90;;;;;;5067431;28;20032;-59
2020/12/07 10:50:54;;;;;;;166.68;60.67;;;4.50;99.90;;;;;;5062681;28;20016;-61
2020/12/07 10:53:19;;;;;;;155.43;59.10;;;4.50;99.90;;;;;;5054677;28;20482;-59
2020/12/07 10:55:45;;;;;;;149.20;56.55;;;4.50;99.90;;;;;;5057358;28;20025;-61
2020/12/07 10:58:11;;;;;;;159.43;58.72;;;4.60;99.90;;;;;;5059769;28;20501;-62
2020/12/07 11:00:39;;;;;;;131.73;54.63;;;4.50;99.90;;;;;;5069737;28;20563;-61
2020/12/07 11:03:05;;;;;;;138.88;57.55;;;4.50;99.90;;;;;;5073025;28;20116;-63
2020/12/07 11:05:32;;;;;;;151.48;55.90;;;4.40;99.90;;;;;;5069606;28;20069;-60
2020/12/07 11:07:58;;;;;;;153.30;57.13;;;4.40;99.90;;;;;;5075618;22;20057;-65
2020/12/07 11:10:23;;;;;;;160.68;61.47;;;4.50;99.90;;;;;;5060508;28;20090;-65
2020/12/07 11:12:58;;;;;;;124.22;54.55;;;4.50;99.90;;;;;;5054955;28;20021;-65
2020/12/07 11:15:23;;;;;;;159.40;62.47;;;4.60;99.90;;;;;;5058736;28;20075;-64
2020/12/07 11:17:49;;;;;;;180.73;63.40;;;4.60;99.90;;;;;;5050477;28;20104;-64
2020/12/07 11:20:14;;;;;;;146.98;58.55;;;4.60;99.90;;;;;;5060788;28;20073;-65
2020/12/07 11:22:40;;;;;;;179.98;62.80;;;4.60;99.90;;;;;;5049748;28;20104;-65
2020/12/07 11:25:06;;;;;;;160.82;60.90;;;4.60;99.90;;;;;;5056899;28;20173;-65
2020/12/07 11:27:31;;;;;;;149.07;57.38;;;4.60;99.90;;;;;;5052945;28;20036;-65
2020/12/07 11:29:56;;;;;;;164.23;63.13;;;4.60;99.90;;;;;;5055111;28;20459;-66
2020/12/07 11:32:22;;;;;;;170.52;63.08;;;4.60;99.90;;;;;;5051945;28;20105;-64
2020/12/07 11:34:47;;;;;;;160.00;60.83;;;4.60;99.90;;;;;;5054719;28;20044;-65
2020/12/07 11:37:13;;;;;;;179.07;63.05;;;4.60;99.90;;;;;;5052094;28;20033;-66
2020/12/07 11:39:49;;;;;;;189.55;66.97;;;4.60;99.90;;;;;;5057183;28;20501;-66
2020/12/07 11:44:40;;;;;;;203.45;69.03;;;4.70;99.90;;;;;;5061182;28;20428;-64
2020/12/07 11:47:08;;;;;;;165.05;63.88;;;4.80;99.90;;;;;;5057570;28;20017;-65
2020/12/07 11:49:33;;;;;;;196.60;68.60;;;4.80;99.90;;;;;;5056678;28;20067;-65
2020/12/07 11:52:06;;;;;;;194.25;70.18;;;4.90;99.90;;;;;;5054596;28;20032;-65
2020/12/07 11:54:32;;;;;;;189.95;67.78;;;4.70;99.90;;;;;;5055424;28;20035;-65
2020/12/07 11:57:03;;;;;;;196.43;69.15;;;4.70;99.90;;;;;;5056149;28;20033;-65
2020/12/07 11:59:29;;;;;;;174.23;67.10;;;4.70;99.90;;;;;;5054997;28;20021;-65
2020/12/07 12:01:54;;;;;;;168.70;66.00;;;4.70;99.90;;;;;;5063626;28;20494;-66
2020/12/07 12:04:20;;;;;;;163.52;62.45;;;4.60;99.90;;;;;;5040362;28;20030;-65
2020/12/07 12:06:45;;;;;;;178.50;66.68;;;4.60;99.90;;;;;;5062003;28;20021;-65
2020/12/07 12:09:12;;;;;;;188.00;68.32;;;4.60;99.90;;;;;;5062237;28;20071;-65
2020/12/07 12:11:39;;;;;;;216.82;74.28;;;4.70;99.90;;;;;;5054385;28;20021;-65
2020/12/07 12:14:06;;;;;;;178.55;66.60;;;4.70;99.90;;;;;;5054093;28;20033;-66
2020/12/07 12:16:33;;;;;;;184.50;70.03;;;4.70;99.90;;;;;;5051803;28;20029;-67
2020/12/07 12:18:59;;;;;;;186.70;66.22;;;4.70;99.90;;;;;;5054016;28;20025;-66
2020/12/07 12:21:27;;;;;;;178.48;65.60;;;4.70;99.90;;;;;;5054285;28;20116;-66
2020/12/07 12:23:53;;;;;;;174.95;65.55;;;4.70;99.90;;;;;;5060338;28;20025;-67
2020/12/07 12:26:20;;;;;;;184.07;67.53;;;4.60;99.90;;;;;;5046012;28;20025;-65
2020/12/07 12:28:46;;;;;;;192.02;63.63;;;4.60;99.90;;;;;;5046314;28;20053;-65
2020/12/07 12:31:12;;;;;;;207.45;68.75;;;4.60;99.90;;;;;;5052519;28;20028;-66
2020/12/07 12:33:38;;;;;;;193.02;67.15;;;4.60;99.90;;;;;;5052363;28;20040;-66
2020/12/07 12:36:05;;;;;;;201.82;70.20;;;4.60;99.90;;;;;;5048193;28;20025;-64
2020/12/07 12:38:31;;;;;;;209.07;69.95;;;4.50;99.90;;;;;;5061059;28;20028;-65
2020/12/07 12:40:56;;;;;;;194.88;68.30;;;4.60;99.90;;;;;;5046041;28;20082;-69
2020/12/07 12:43:22;;;;;;;202.30;66.57;;;4.50;99.90;;;;;;5049101;28;20109;-65
2020/12/07 12:45:47;;;;;;;199.40;66.78;;;4.60;99.90;;;;;;5052593;28;20494;-65
2020/12/07 12:48:13;;;;;;;212.40;68.70;;;4.60;99.90;;;;;;5047544;28;20099;-66
2020/12/07 12:50:39;;;;;;;203.55;68.43;;;4.60;99.90;;;;;;5054296;28;20057;-63
2020/12/07 12:53:04;;;;;;;208.15;67.97;;;4.60;99.90;;;;;;5040288;28;20391;-64
2020/12/07 12:55:30;;;;;;;226.55;70.38;;;4.70;99.90;;;;;;5053031;28;20483;-65
2020/12/07 12:57:56;;;;;;;228.98;72.90;;;4.70;99.90;;;;;;5046230;28;20112;-65
2020/12/07 13:00:21;;;;;;;242.35;72.80;;;4.70;99.90;;;;;;5057275;28;20039;-64
2020/12/07 13:02:47;;;;;;;236.60;70.25;;;4.70;99.90;;;;;;5054531;28;20135;-65
2020/12/07 13:05:13;;;;;;;218.55;68.90;;;4.70;99.90;;;;;;5057034;28;20021;-65